sensor_id;sensor_type;location;lat;lon;timestamp;P1;durP1;ratioP1;P2;durP2;ratioP2
5811;SDS011;2932;52.400;9.558;2024-03-17T00:01:57;6.83;;;2.40;;
5811;SDS011;2932;52.400;9.558;2024-03-17T00:04:26;5.90;;;2.23;;
5811;SDS011;2932;52.400;9.558;2024-03-17T00:06:54;13.63;;;2.70;;
5811;SDS011;2932;52.400;9.558;2024-03-17T00:09:19;10.33;;;2.17;;
5811;SDS011;2932;52.400;9.558;2024-03-17T00:11:52;7.73;;;2.07;;
5811;SDS011;2932;52.400;9.558;2024-03-17T00:14:27;9.13;;;2.00;;
5811;SDS011;2932;52.400;9.558;2024-03-17T00:17:01;7.90;;;2.57;;
5811;SDS011;2932;52.400;9.558;2024-03-17T00:19:35;11.77;;;2.33;;
5811;SDS011;2932;52.400;9.558;2024-03-17T00:22:04;8.00;;;2.43;;
5811;SDS011;2932;52.400;9.558;2024-03-17T00:24:38;8.33;;;2.27;;
5811;SDS011;2932;52.400;9.558;2024-03-17T00:27:10;9.07;;;2.40;;
5811;SDS011;2932;52.400;9.558;2024-03-17T00:29:40;9.53;;;2.30;;
5811;SDS011;2932;52.400;9.558;2024-03-17T00:32:12;7.77;;;2.57;;
5811;SDS011;2932;52.400;9.558;2024-03-17T00:34:42;7.00;;;3.20;;
5811;SDS011;2932;52.400;9.558;2024-03-17T00:37:21;6.60;;;2.20;;
5811;SDS011;2932;52.400;9.558;2024-03-17T00:39:49;6.27;;;2.27;;
5811;SDS011;2932;52.400;9.558;2024-03-17T00:42:23;7.60;;;2.40;;
5811;SDS011;2932;52.400;9.558;2024-03-17T00:44:53;6.43;;;2.47;;
5811;SDS011;2932;52.400;9.558;2024-03-17T00:47:28;8.43;;;2.67;;
5811;SDS011;2932;52.400;9.558;2024-03-17T00:49:57;6.63;;;2.43;;
5811;SDS011;2932;52.400;9.558;2024-03-17T00:52:50;7.67;;;2.00;;
5811;SDS011;2932;52.400;9.558;2024-03-17T00:55:56;8.40;;;2.50;;
5811;SDS011;2932;52.400;9.558;2024-03-17T00:58:43;5.37;;;2.67;;
5811;SDS011;2932;52.400;9.558;2024-03-17T01:01:35;7.40;;;2.67;;
5811;SDS011;2932;52.400;9.558;2024-03-17T01:04:12;6.87;;;2.30;;
5811;SDS011;2932;52.400;9.558;2024-03-17T01:06:37;6.20;;;2.40;;
5811;SDS011;2932;52.400;9.558;2024-03-17T01:09:11;10.07;;;3.33;;
5811;SDS011;2932;52.400;9.558;2024-03-17T01:11:45;7.37;;;2.23;;
5811;SDS011;2932;52.400;9.558;2024-03-17T01:14:16;8.03;;;2.20;;
5811;SDS011;2932;52.400;9.558;2024-03-17T01:20:05;5.33;;;2.57;;
5811;SDS011;2932;52.400;9.558;2024-03-17T01:22:45;6.87;;;2.20;;
5811;SDS011;2932;52.400;9.558;2024-03-17T01:25:15;6.53;;;2.40;;
5811;SDS011;2932;52.400;9.558;2024-03-17T01:27:59;7.20;;;2.33;;
5811;SDS011;2932;52.400;9.558;2024-03-17T01:30:47;7.57;;;2.30;;
5811;SDS011;2932;52.400;9.558;2024-03-17T01:33:35;8.07;;;2.30;;
5811;SDS011;2932;52.400;9.558;2024-03-17T01:36:00;6.87;;;3.27;;
5811;SDS011;2932;52.400;9.558;2024-03-17T01:38:40;7.20;;;3.07;;
5811;SDS011;2932;52.400;9.558;2024-03-17T01:41:21;10.70;;;2.30;;
5811;SDS011;2932;52.400;9.558;2024-03-17T01:44:06;7.77;;;2.43;;
5811;SDS011;2932;52.400;9.558;2024-03-17T01:46:50;5.43;;;2.60;;
5811;SDS011;2932;52.400;9.558;2024-03-17T01:49:31;7.80;;;2.53;;
5811;SDS011;2932;52.400;9.558;2024-03-17T01:52:15;7.33;;;2.27;;
5811;SDS011;2932;52.400;9.558;2024-03-17T01:54:44;8.10;;;3.37;;
5811;SDS011;2932;52.400;9.558;2024-03-17T01:57:17;5.57;;;2.37;;
5811;SDS011;2932;52.400;9.558;2024-03-17T01:59:51;9.10;;;2.73;;
5811;SDS011;2932;52.400;9.558;2024-03-17T02:02:33;6.83;;;2.87;;
5811;SDS011;2932;52.400;9.558;2024-03-17T02:05:02;9.73;;;2.77;;
5811;SDS011;2932;52.400;9.558;2024-03-17T02:07:34;7.07;;;2.77;;
5811;SDS011;2932;52.400;9.558;2024-03-17T02:10:11;13.63;;;3.23;;
5811;SDS011;2932;52.400;9.558;2024-03-17T02:12:45;11.63;;;3.57;;
5811;SDS011;2932;52.400;9.558;2024-03-17T02:15:23;7.03;;;2.50;;
5811;SDS011;2932;52.400;9.558;2024-03-17T02:17:51;6.53;;;2.20;;
5811;SDS011;2932;52.400;9.558;2024-03-17T02:20:21;10.47;;;2.40;;
5811;SDS011;2932;52.400;9.558;2024-03-17T02:23:13;10.43;;;2.23;;
5811;SDS011;2932;52.400;9.558;2024-03-17T02:25:45;4.60;;;2.60;;
5811;SDS011;2932;52.400;9.558;2024-03-17T02:28:26;9.20;;;2.63;;
5811;SDS011;2932;52.400;9.558;2024-03-17T02:30:59;7.33;;;2.47;;
5811;SDS011;2932;52.400;9.558;2024-03-17T02:33:37;5.87;;;2.30;;
5811;SDS011;2932;52.400;9.558;2024-03-17T02:36:29;10.73;;;2.80;;
5811;SDS011;2932;52.400;9.558;2024-03-17T02:39:05;6.27;;;2.30;;
5811;SDS011;2932;52.400;9.558;2024-03-17T02:41:55;6.73;;;2.17;;
5811;SDS011;2932;52.400;9.558;2024-03-17T02:44:24;10.90;;;2.70;;
5811;SDS011;2932;52.400;9.558;2024-03-17T02:47:21;7.40;;;2.50;;
5811;SDS011;2932;52.400;9.558;2024-03-17T02:49:51;6.27;;;2.40;;
5811;SDS011;2932;52.400;9.558;2024-03-17T02:52:27;5.30;;;2.10;;
5811;SDS011;2932;52.400;9.558;2024-03-17T02:54:55;3.23;;;2.30;;
5811;SDS011;2932;52.400;9.558;2024-03-17T02:57:28;6.07;;;2.40;;
5811;SDS011;2932;52.400;9.558;2024-03-17T03:00:03;5.53;;;2.43;;
5811;SDS011;2932;52.400;9.558;2024-03-17T03:02:54;4.90;;;2.10;;
5811;SDS011;2932;52.400;9.558;2024-03-17T03:05:25;8.30;;;2.40;;
5811;SDS011;2932;52.400;9.558;2024-03-17T03:11:59;7.20;;;2.60;;
5811;SDS011;2932;52.400;9.558;2024-03-17T03:14:43;11.17;;;2.33;;
5811;SDS011;2932;52.400;9.558;2024-03-17T03:20:20;8.70;;;2.60;;
5811;SDS011;2932;52.400;9.558;2024-03-17T03:22:49;10.27;;;2.60;;
5811;SDS011;2932;52.400;9.558;2024-03-17T03:25:33;8.57;;;2.87;;
5811;SDS011;2932;52.400;9.558;2024-03-17T03:28:04;7.27;;;2.57;;
5811;SDS011;2932;52.400;9.558;2024-03-17T03:33:57;8.40;;;3.27;;
5811;SDS011;2932;52.400;9.558;2024-03-17T03:36:45;7.83;;;2.00;;
5811;SDS011;2932;52.400;9.558;2024-03-17T03:39:19;8.30;;;2.73;;
5811;SDS011;2932;52.400;9.558;2024-03-17T03:42:07;4.63;;;2.10;;
5811;SDS011;2932;52.400;9.558;2024-03-17T03:44:57;8.47;;;2.83;;
5811;SDS011;2932;52.400;9.558;2024-03-17T03:47:46;10.90;;;2.57;;
5811;SDS011;2932;52.400;9.558;2024-03-17T03:53:44;5.40;;;2.50;;
5811;SDS011;2932;52.400;9.558;2024-03-17T03:59:05;7.03;;;2.60;;
5811;SDS011;2932;52.400;9.558;2024-03-17T04:01:50;6.03;;;2.63;;
5811;SDS011;2932;52.400;9.558;2024-03-17T04:05:19;7.07;;;2.70;;
5811;SDS011;2932;52.400;9.558;2024-03-17T04:08:09;7.63;;;2.77;;
5811;SDS011;2932;52.400;9.558;2024-03-17T04:26:46;3.97;;;2.30;;
5811;SDS011;2932;52.400;9.558;2024-03-17T04:33:25;4.17;;;2.30;;
5811;SDS011;2932;52.400;9.558;2024-03-17T04:35:54;6.63;;;2.50;;
5811;SDS011;2932;52.400;9.558;2024-03-17T04:38:28;3.60;;;2.13;;
5811;SDS011;2932;52.400;9.558;2024-03-17T04:41:02;6.07;;;2.17;;
5811;SDS011;2932;52.400;9.558;2024-03-17T04:53:32;6.77;;;2.50;;
5811;SDS011;2932;52.400;9.558;2024-03-17T04:57:02;10.03;;;3.40;;
5811;SDS011;2932;52.400;9.558;2024-03-17T05:07:34;11.37;;;3.30;;
5811;SDS011;2932;52.400;9.558;2024-03-17T05:10:19;6.60;;;2.70;;
5811;SDS011;2932;52.400;9.558;2024-03-17T05:13:11;6.87;;;2.90;;
5811;SDS011;2932;52.400;9.558;2024-03-17T05:26:00;6.43;;;2.30;;
5811;SDS011;2932;52.400;9.558;2024-03-17T05:29:10;8.27;;;2.73;;
5811;SDS011;2932;52.400;9.558;2024-03-17T05:31:39;4.83;;;2.40;;
5811;SDS011;2932;52.400;9.558;2024-03-17T05:34:40;7.97;;;2.27;;
5811;SDS011;2932;52.400;9.558;2024-03-17T05:37:15;7.03;;;2.03;;
5811;SDS011;2932;52.400;9.558;2024-03-17T05:39:52;6.70;;;2.13;;
5811;SDS011;2932;52.400;9.558;2024-03-17T05:42:25;10.20;;;2.87;;
5811;SDS011;2932;52.400;9.558;2024-03-17T05:44:54;6.40;;;2.40;;
5811;SDS011;2932;52.400;9.558;2024-03-17T05:47:39;10.67;;;2.40;;
5811;SDS011;2932;52.400;9.558;2024-03-17T05:50:09;5.10;;;2.40;;
5811;SDS011;2932;52.400;9.558;2024-03-17T05:52:43;7.57;;;2.10;;
5811;SDS011;2932;52.400;9.558;2024-03-17T05:55:11;8.33;;;2.10;;
5811;SDS011;2932;52.400;9.558;2024-03-17T05:57:53;5.60;;;2.17;;
5811;SDS011;2932;52.400;9.558;2024-03-17T06:00:21;5.10;;;2.27;;
5811;SDS011;2932;52.400;9.558;2024-03-17T06:03:05;5.37;;;2.40;;
5811;SDS011;2932;52.400;9.558;2024-03-17T06:05:48;6.73;;;2.20;;
5811;SDS011;2932;52.400;9.558;2024-03-17T06:08:23;6.90;;;3.27;;
5811;SDS011;2932;52.400;9.558;2024-03-17T06:14:22;6.63;;;2.60;;
5811;SDS011;2932;52.400;9.558;2024-03-17T06:17:34;8.47;;;4.00;;
5811;SDS011;2932;52.400;9.558;2024-03-17T06:23:55;5.60;;;2.40;;
5811;SDS011;2932;52.400;9.558;2024-03-17T06:37:14;5.23;;;2.67;;
5811;SDS011;2932;52.400;9.558;2024-03-17T07:01:25;9.97;;;2.97;;
5811;SDS011;2932;52.400;9.558;2024-03-17T07:03:56;7.50;;;2.70;;
5811;SDS011;2932;52.400;9.558;2024-03-17T07:09:46;14.50;;;4.90;;
5811;SDS011;2932;52.400;9.558;2024-03-17T07:12:44;9.30;;;3.13;;
5811;SDS011;2932;52.400;9.558;2024-03-17T07:15:56;10.23;;;2.47;;
5811;SDS011;2932;52.400;9.558;2024-03-17T07:18:28;7.20;;;2.77;;
5811;SDS011;2932;52.400;9.558;2024-03-17T07:21:12;7.07;;;2.30;;
5811;SDS011;2932;52.400;9.558;2024-03-17T07:26:48;7.83;;;2.37;;
5811;SDS011;2932;52.400;9.558;2024-03-17T07:29:26;9.60;;;2.57;;
5811;SDS011;2932;52.400;9.558;2024-03-17T07:31:57;8.30;;;2.27;;
5811;SDS011;2932;52.400;9.558;2024-03-17T07:34:45;9.27;;;2.53;;
5811;SDS011;2932;52.400;9.558;2024-03-17T07:40:00;8.20;;;2.63;;
5811;SDS011;2932;52.400;9.558;2024-03-17T07:42:59;7.40;;;2.50;;
5811;SDS011;2932;52.400;9.558;2024-03-17T07:48:30;4.97;;;2.10;;
5811;SDS011;2932;52.400;9.558;2024-03-17T07:51:39;4.93;;;2.50;;
5811;SDS011;2932;52.400;9.558;2024-03-17T07:54:25;11.80;;;2.40;;
5811;SDS011;2932;52.400;9.558;2024-03-17T07:57:00;9.87;;;2.40;;
5811;SDS011;2932;52.400;9.558;2024-03-17T07:59:53;9.60;;;2.30;;
5811;SDS011;2932;52.400;9.558;2024-03-17T08:02:21;9.63;;;1.93;;
5811;SDS011;2932;52.400;9.558;2024-03-17T08:05:18;11.33;;;2.63;;
5811;SDS011;2932;52.400;9.558;2024-03-17T08:10:59;9.73;;;2.70;;
5811;SDS011;2932;52.400;9.558;2024-03-17T08:13:25;8.87;;;2.13;;
5811;SDS011;2932;52.400;9.558;2024-03-17T08:19:24;9.77;;;2.30;;
5811;SDS011;2932;52.400;9.558;2024-03-17T08:21:52;14.30;;;2.37;;
5811;SDS011;2932;52.400;9.558;2024-03-17T08:24:42;12.17;;;2.80;;
5811;SDS011;2932;52.400;9.558;2024-03-17T08:27:11;7.57;;;2.43;;
5811;SDS011;2932;52.400;9.558;2024-03-17T08:29:50;8.60;;;2.30;;
5811;SDS011;2932;52.400;9.558;2024-03-17T08:32:26;8.53;;;2.30;;
5811;SDS011;2932;52.400;9.558;2024-03-17T08:34:56;10.57;;;3.03;;
5811;SDS011;2932;52.400;9.558;2024-03-17T08:37:31;9.87;;;2.37;;
5811;SDS011;2932;52.400;9.558;2024-03-17T08:39:57;13.17;;;2.50;;
5811;SDS011;2932;52.400;9.558;2024-03-17T08:42:28;4.80;;;2.07;;
5811;SDS011;2932;52.400;9.558;2024-03-17T08:48:02;6.70;;;2.03;;
5811;SDS011;2932;52.400;9.558;2024-03-17T08:50:38;6.17;;;1.97;;
5811;SDS011;2932;52.400;9.558;2024-03-17T08:53:07;9.23;;;2.20;;
5811;SDS011;2932;52.400;9.558;2024-03-17T08:55:46;8.53;;;2.30;;
5811;SDS011;2932;52.400;9.558;2024-03-17T08:58:18;8.20;;;1.93;;
5811;SDS011;2932;52.400;9.558;2024-03-17T09:00:54;12.80;;;2.70;;
5811;SDS011;2932;52.400;9.558;2024-03-17T09:03:38;7.63;;;1.93;;
5811;SDS011;2932;52.400;9.558;2024-03-17T09:06:15;8.77;;;2.93;;
5811;SDS011;2932;52.400;9.558;2024-03-17T09:08:52;8.13;;;2.40;;
5811;SDS011;2932;52.400;9.558;2024-03-17T09:11:20;9.60;;;2.60;;
5811;SDS011;2932;52.400;9.558;2024-03-17T09:13:53;7.00;;;2.27;;
5811;SDS011;2932;52.400;9.558;2024-03-17T09:19:05;9.97;;;2.40;;
5811;SDS011;2932;52.400;9.558;2024-03-17T09:21:38;8.20;;;1.57;;
5811;SDS011;2932;52.400;9.558;2024-03-17T09:24:59;7.83;;;2.00;;
5811;SDS011;2932;52.400;9.558;2024-03-17T09:27:24;5.30;;;1.93;;
5811;SDS011;2932;52.400;9.558;2024-03-17T09:30:03;9.73;;;2.17;;
5811;SDS011;2932;52.400;9.558;2024-03-17T09:33:03;8.10;;;2.17;;
5811;SDS011;2932;52.400;9.558;2024-03-17T09:35:52;8.80;;;2.70;;
5811;SDS011;2932;52.400;9.558;2024-03-17T09:42:01;8.43;;;2.17;;
5811;SDS011;2932;52.400;9.558;2024-03-17T09:44:42;14.40;;;2.87;;
5811;SDS011;2932;52.400;9.558;2024-03-17T09:56:30;6.20;;;2.20;;
5811;SDS011;2932;52.400;9.558;2024-03-17T10:02:01;5.00;;;2.27;;
5811;SDS011;2932;52.400;9.558;2024-03-17T10:04:35;8.50;;;2.73;;
5811;SDS011;2932;52.400;9.558;2024-03-17T10:07:11;7.63;;;2.40;;
5811;SDS011;2932;52.400;9.558;2024-03-17T10:09:37;8.70;;;2.53;;
5811;SDS011;2932;52.400;9.558;2024-03-17T10:12:06;7.33;;;2.50;;
5811;SDS011;2932;52.400;9.558;2024-03-17T10:14:58;8.70;;;2.63;;
5811;SDS011;2932;52.400;9.558;2024-03-17T10:17:31;7.83;;;2.60;;
5811;SDS011;2932;52.400;9.558;2024-03-17T10:20:11;8.93;;;3.23;;
5811;SDS011;2932;52.400;9.558;2024-03-17T10:23:06;8.93;;;2.70;;
5811;SDS011;2932;52.400;9.558;2024-03-17T10:25:42;8.17;;;2.70;;
5811;SDS011;2932;52.400;9.558;2024-03-17T10:28:11;8.70;;;3.00;;
5811;SDS011;2932;52.400;9.558;2024-03-17T10:30:37;9.23;;;3.65;;
5811;SDS011;2932;52.400;9.558;2024-03-17T10:33:05;5.28;;;2.67;;
5811;SDS011;2932;52.400;9.558;2024-03-17T10:37:59;6.07;;;2.90;;
5811;SDS011;2932;52.400;9.558;2024-03-17T10:40:29;9.02;;;2.88;;
5811;SDS011;2932;52.400;9.558;2024-03-17T10:42:56;5.85;;;3.08;;
5811;SDS011;2932;52.400;9.558;2024-03-17T10:45:24;9.85;;;4.30;;
5811;SDS011;2932;52.400;9.558;2024-03-17T10:47:50;7.13;;;3.30;;
5811;SDS011;2932;52.400;9.558;2024-03-17T10:50:25;6.35;;;3.33;;
5811;SDS011;2932;52.400;9.558;2024-03-17T10:52:55;7.90;;;3.60;;
5811;SDS011;2932;52.400;9.558;2024-03-17T10:55:27;10.65;;;3.80;;
5811;SDS011;2932;52.400;9.558;2024-03-17T10:57:58;6.70;;;3.47;;
5811;SDS011;2932;52.400;9.558;2024-03-17T11:00:29;5.50;;;3.60;;
5811;SDS011;2932;52.400;9.558;2024-03-17T11:02:55;5.75;;;3.30;;
5811;SDS011;2932;52.400;9.558;2024-03-17T11:05:22;9.18;;;3.58;;
5811;SDS011;2932;52.400;9.558;2024-03-17T11:07:50;7.22;;;3.70;;
5811;SDS011;2932;52.400;9.558;2024-03-17T11:10:23;11.05;;;3.15;;
5811;SDS011;2932;52.400;9.558;2024-03-17T11:12:56;7.43;;;3.15;;
5811;SDS011;2932;52.400;9.558;2024-03-17T11:17:50;7.70;;;3.33;;
5811;SDS011;2932;52.400;9.558;2024-03-17T11:20:26;9.15;;;3.50;;
5811;SDS011;2932;52.400;9.558;2024-03-17T11:22:57;5.80;;;2.92;;
5811;SDS011;2932;52.400;9.558;2024-03-17T11:27:52;6.38;;;4.10;;
5811;SDS011;2932;52.400;9.558;2024-03-17T11:52:02;5.05;;;3.45;;
5811;SDS011;2932;52.400;9.558;2024-03-17T11:54:33;7.00;;;3.50;;
5811;SDS011;2932;52.400;9.558;2024-03-17T11:57:01;7.88;;;3.80;;
5811;SDS011;2932;52.400;9.558;2024-03-17T11:59:37;8.45;;;3.63;;
5811;SDS011;2932;52.400;9.558;2024-03-17T12:02:09;7.15;;;4.25;;
5811;SDS011;2932;52.400;9.558;2024-03-17T12:04:41;9.68;;;3.65;;
5811;SDS011;2932;52.400;9.558;2024-03-17T12:07:11;9.30;;;4.25;;
5811;SDS011;2932;52.400;9.558;2024-03-17T12:09:38;5.88;;;3.63;;
5811;SDS011;2932;52.400;9.558;2024-03-17T12:12:11;6.43;;;4.05;;
5811;SDS011;2932;52.400;9.558;2024-03-17T12:14:39;8.20;;;3.92;;
5811;SDS011;2932;52.400;9.558;2024-03-17T12:17:05;8.20;;;3.97;;
5811;SDS011;2932;52.400;9.558;2024-03-17T12:19:32;6.03;;;3.67;;
5811;SDS011;2932;52.400;9.558;2024-03-17T12:21:59;7.35;;;3.95;;
5811;SDS011;2932;52.400;9.558;2024-03-17T12:24:26;6.78;;;3.80;;
5811;SDS011;2932;52.400;9.558;2024-03-17T12:26:54;6.57;;;4.00;;
5811;SDS011;2932;52.400;9.558;2024-03-17T12:31:53;7.85;;;3.90;;
5811;SDS011;2932;52.400;9.558;2024-03-17T12:34:20;7.25;;;3.92;;
5811;SDS011;2932;52.400;9.558;2024-03-17T12:36:46;6.15;;;3.95;;
5811;SDS011;2932;52.400;9.558;2024-03-17T12:39:19;7.00;;;3.90;;
5811;SDS011;2932;52.400;9.558;2024-03-17T12:44:52;6.22;;;4.30;;
5811;SDS011;2932;52.400;9.558;2024-03-17T12:47:28;5.57;;;3.67;;
5811;SDS011;2932;52.400;9.558;2024-03-17T12:49:55;5.93;;;3.92;;
5811;SDS011;2932;52.400;9.558;2024-03-17T12:52:23;6.57;;;3.88;;
5811;SDS011;2932;52.400;9.558;2024-03-17T12:57:49;7.53;;;4.07;;
5811;SDS011;2932;52.400;9.558;2024-03-17T13:08:11;7.18;;;4.63;;
5811;SDS011;2932;52.400;9.558;2024-03-17T13:16:15;5.30;;;3.95;;
5811;SDS011;2932;52.400;9.558;2024-03-17T13:25:45;7.22;;;4.20;;
5811;SDS011;2932;52.400;9.558;2024-03-17T14:11:47;7.70;;;4.22;;
5811;SDS011;2932;52.400;9.558;2024-03-17T14:14:19;7.55;;;4.43;;
5811;SDS011;2932;52.400;9.558;2024-03-17T14:16:55;4.85;;;3.60;;
5811;SDS011;2932;52.400;9.558;2024-03-17T14:19:24;5.63;;;4.18;;
5811;SDS011;2932;52.400;9.558;2024-03-17T14:22:00;6.35;;;3.95;;
5811;SDS011;2932;52.400;9.558;2024-03-17T14:27:50;8.35;;;4.10;;
5811;SDS011;2932;52.400;9.558;2024-03-17T14:30:38;7.75;;;4.30;;
5811;SDS011;2932;52.400;9.558;2024-03-17T14:36:28;9.50;;;4.75;;
5811;SDS011;2932;52.400;9.558;2024-03-17T14:38:57;9.40;;;4.13;;
5811;SDS011;2932;52.400;9.558;2024-03-17T14:41:28;8.68;;;4.30;;
5811;SDS011;2932;52.400;9.558;2024-03-17T14:44:05;5.47;;;4.20;;
5811;SDS011;2932;52.400;9.558;2024-03-17T14:46:45;5.68;;;4.15;;
5811;SDS011;2932;52.400;9.558;2024-03-17T14:49:20;9.18;;;3.63;;
5811;SDS011;2932;52.400;9.558;2024-03-17T14:51:46;5.40;;;3.58;;
5811;SDS011;2932;52.400;9.558;2024-03-17T14:54:14;6.20;;;3.58;;
5811;SDS011;2932;52.400;9.558;2024-03-17T14:56:40;7.25;;;4.00;;
5811;SDS011;2932;52.400;9.558;2024-03-17T14:59:05;7.07;;;4.38;;
5811;SDS011;2932;52.400;9.558;2024-03-17T15:01:40;8.80;;;4.50;;
5811;SDS011;2932;52.400;9.558;2024-03-17T15:04:20;6.43;;;4.47;;
5811;SDS011;2932;52.400;9.558;2024-03-17T15:07:00;9.25;;;4.88;;
5811;SDS011;2932;52.400;9.558;2024-03-17T15:09:36;7.95;;;5.22;;
5811;SDS011;2932;52.400;9.558;2024-03-17T15:12:17;8.07;;;4.97;;
5811;SDS011;2932;52.400;9.558;2024-03-17T15:14:46;6.13;;;4.93;;
5811;SDS011;2932;52.400;9.558;2024-03-17T15:17:14;6.05;;;4.65;;
5811;SDS011;2932;52.400;9.558;2024-03-17T15:19:47;6.25;;;4.30;;
5811;SDS011;2932;52.400;9.558;2024-03-17T15:22:13;10.85;;;5.22;;
5811;SDS011;2932;52.400;9.558;2024-03-17T15:24:38;9.57;;;4.57;;
5811;SDS011;2932;52.400;9.558;2024-03-17T15:27:04;6.55;;;4.50;;
5811;SDS011;2932;52.400;9.558;2024-03-17T15:29:32;5.68;;;4.30;;
5811;SDS011;2932;52.400;9.558;2024-03-17T15:31:57;7.80;;;4.75;;
5811;SDS011;2932;52.400;9.558;2024-03-17T15:34:29;6.65;;;4.38;;
5811;SDS011;2932;52.400;9.558;2024-03-17T15:36:58;6.50;;;4.40;;
5811;SDS011;2932;52.400;9.558;2024-03-17T15:39:31;7.80;;;4.22;;
5811;SDS011;2932;52.400;9.558;2024-03-17T15:44:45;7.35;;;4.93;;
5811;SDS011;2932;52.400;9.558;2024-03-17T15:47:10;6.20;;;4.47;;
5811;SDS011;2932;52.400;9.558;2024-03-17T15:49:36;7.40;;;4.70;;
5811;SDS011;2932;52.400;9.558;2024-03-17T15:52:12;9.27;;;4.88;;
5811;SDS011;2932;52.400;9.558;2024-03-17T15:54:46;8.82;;;4.93;;
5811;SDS011;2932;52.400;9.558;2024-03-17T15:57:19;7.68;;;4.55;;
5811;SDS011;2932;52.400;9.558;2024-03-17T16:02:53;6.33;;;4.37;;
5811;SDS011;2932;52.400;9.558;2024-03-17T16:05:34;7.55;;;4.47;;
5811;SDS011;2932;52.400;9.558;2024-03-17T16:07:59;11.40;;;5.70;;
5811;SDS011;2932;52.400;9.558;2024-03-17T16:10:27;8.03;;;4.87;;
5811;SDS011;2932;52.400;9.558;2024-03-17T16:13:01;8.40;;;4.80;;
5811;SDS011;2932;52.400;9.558;2024-03-17T16:15:27;8.03;;;5.03;;
5811;SDS011;2932;52.400;9.558;2024-03-17T16:18:09;6.87;;;5.00;;
5811;SDS011;2932;52.400;9.558;2024-03-17T16:23:33;8.23;;;5.13;;
5811;SDS011;2932;52.400;9.558;2024-03-17T16:26:10;7.30;;;5.27;;
5811;SDS011;2932;52.400;9.558;2024-03-17T16:28:41;9.07;;;5.70;;
5811;SDS011;2932;52.400;9.558;2024-03-17T16:31:27;7.73;;;4.50;;
5811;SDS011;2932;52.400;9.558;2024-03-17T16:33:53;7.83;;;4.40;;
5811;SDS011;2932;52.400;9.558;2024-03-17T16:36:27;9.52;;;5.40;;
5811;SDS011;2932;52.400;9.558;2024-03-17T16:39:11;10.07;;;5.93;;
5811;SDS011;2932;52.400;9.558;2024-03-17T16:41:37;10.37;;;7.23;;
5811;SDS011;2932;52.400;9.558;2024-03-17T16:49:34;7.63;;;5.63;;
5811;SDS011;2932;52.400;9.558;2024-03-17T16:52:10;8.50;;;5.00;;
5811;SDS011;2932;52.400;9.558;2024-03-17T17:08:17;5.03;;;4.10;;
5811;SDS011;2932;52.400;9.558;2024-03-17T17:21:35;7.07;;;4.30;;
5811;SDS011;2932;52.400;9.558;2024-03-17T17:24:11;10.40;;;4.70;;
5811;SDS011;2932;52.400;9.558;2024-03-17T17:26:45;7.67;;;4.90;;
5811;SDS011;2932;52.400;9.558;2024-03-17T17:29:11;6.70;;;4.73;;
5811;SDS011;2932;52.400;9.558;2024-03-17T17:31:37;9.07;;;4.63;;
5811;SDS011;2932;52.400;9.558;2024-03-17T17:34:02;9.10;;;4.97;;
5811;SDS011;2932;52.400;9.558;2024-03-17T17:36:27;9.30;;;4.53;;
5811;SDS011;2932;52.400;9.558;2024-03-17T17:38:53;7.30;;;4.10;;
5811;SDS011;2932;52.400;9.558;2024-03-17T17:41:28;7.27;;;4.30;;
5811;SDS011;2932;52.400;9.558;2024-03-17T17:43:54;10.80;;;4.20;;
5811;SDS011;2932;52.400;9.558;2024-03-17T17:46:23;9.00;;;4.23;;
5811;SDS011;2932;52.400;9.558;2024-03-17T17:48:56;10.30;;;4.33;;
5811;SDS011;2932;52.400;9.558;2024-03-17T17:51:22;9.13;;;4.83;;
5811;SDS011;2932;52.400;9.558;2024-03-17T17:53:54;6.80;;;4.00;;
5811;SDS011;2932;52.400;9.558;2024-03-17T17:56:28;6.23;;;3.90;;
5811;SDS011;2932;52.400;9.558;2024-03-17T17:58:56;7.13;;;3.57;;
5811;SDS011;2932;52.400;9.558;2024-03-17T18:01:21;7.07;;;3.60;;
5811;SDS011;2932;52.400;9.558;2024-03-17T18:03:47;9.77;;;4.00;;
5811;SDS011;2932;52.400;9.558;2024-03-17T18:06:14;6.20;;;3.53;;
5811;SDS011;2932;52.400;9.558;2024-03-17T18:08:41;9.90;;;3.57;;
5811;SDS011;2932;52.400;9.558;2024-03-17T18:11:08;7.47;;;3.47;;
5811;SDS011;2932;52.400;9.558;2024-03-17T18:13:34;6.03;;;2.90;;
5811;SDS011;2932;52.400;9.558;2024-03-17T18:16:00;8.47;;;3.17;;
5811;SDS011;2932;52.400;9.558;2024-03-17T18:18:27;7.80;;;3.57;;
5811;SDS011;2932;52.400;9.558;2024-03-17T18:20:54;8.73;;;3.50;;
5811;SDS011;2932;52.400;9.558;2024-03-17T18:23:21;8.13;;;3.43;;
5811;SDS011;2932;52.400;9.558;2024-03-17T18:25:50;8.67;;;3.37;;
5811;SDS011;2932;52.400;9.558;2024-03-17T18:28:16;6.87;;;3.50;;
5811;SDS011;2932;52.400;9.558;2024-03-17T18:30:43;9.10;;;3.50;;
5811;SDS011;2932;52.400;9.558;2024-03-17T18:33:08;9.60;;;3.37;;
5811;SDS011;2932;52.400;9.558;2024-03-17T18:35:34;8.57;;;3.20;;
5811;SDS011;2932;52.400;9.558;2024-03-17T18:38:00;8.73;;;3.60;;
5811;SDS011;2932;52.400;9.558;2024-03-17T18:40:26;14.63;;;3.80;;
5811;SDS011;2932;52.400;9.558;2024-03-17T18:42:52;9.93;;;3.60;;
5811;SDS011;2932;52.400;9.558;2024-03-17T18:45:21;7.37;;;4.07;;
5811;SDS011;2932;52.400;9.558;2024-03-17T18:47:47;7.00;;;3.63;;
5811;SDS011;2932;52.400;9.558;2024-03-17T18:50:16;11.00;;;3.50;;
5811;SDS011;2932;52.400;9.558;2024-03-17T18:52:45;7.70;;;3.60;;
5811;SDS011;2932;52.400;9.558;2024-03-17T18:55:14;7.83;;;3.23;;
5811;SDS011;2932;52.400;9.558;2024-03-17T18:57:40;6.47;;;3.70;;
5811;SDS011;2932;52.400;9.558;2024-03-17T19:00:05;5.17;;;3.00;;
5811;SDS011;2932;52.400;9.558;2024-03-17T19:02:40;9.60;;;3.40;;
5811;SDS011;2932;52.400;9.558;2024-03-17T19:05:06;4.07;;;2.70;;
5811;SDS011;2932;52.400;9.558;2024-03-17T19:07:35;5.77;;;2.80;;
5811;SDS011;2932;52.400;9.558;2024-03-17T19:10:01;5.07;;;2.80;;
5811;SDS011;2932;52.400;9.558;2024-03-17T19:12:27;7.93;;;2.67;;
5811;SDS011;2932;52.400;9.558;2024-03-17T19:14:52;8.13;;;3.17;;
5811;SDS011;2932;52.400;9.558;2024-03-17T19:17:19;9.00;;;3.77;;
5811;SDS011;2932;52.400;9.558;2024-03-17T19:19:45;7.07;;;3.10;;
5811;SDS011;2932;52.400;9.558;2024-03-17T19:22:10;6.90;;;3.23;;
5811;SDS011;2932;52.400;9.558;2024-03-17T19:24:36;8.97;;;3.57;;
5811;SDS011;2932;52.400;9.558;2024-03-17T19:27:03;6.67;;;3.10;;
5811;SDS011;2932;52.400;9.558;2024-03-17T19:29:29;5.23;;;2.73;;
5811;SDS011;2932;52.400;9.558;2024-03-17T19:31:55;8.87;;;3.67;;
5811;SDS011;2932;52.400;9.558;2024-03-17T19:34:20;8.67;;;3.07;;
5811;SDS011;2932;52.400;9.558;2024-03-17T19:36:46;8.87;;;3.20;;
5811;SDS011;2932;52.400;9.558;2024-03-17T19:39:11;9.07;;;2.83;;
5811;SDS011;2932;52.400;9.558;2024-03-17T19:41:41;8.47;;;3.00;;
5811;SDS011;2932;52.400;9.558;2024-03-17T19:44:07;5.90;;;2.80;;
5811;SDS011;2932;52.400;9.558;2024-03-17T19:46:32;8.63;;;2.83;;
5811;SDS011;2932;52.400;9.558;2024-03-17T19:48:58;7.20;;;2.30;;
5811;SDS011;2932;52.400;9.558;2024-03-17T19:51:23;5.80;;;1.93;;
5811;SDS011;2932;52.400;9.558;2024-03-17T19:53:50;5.20;;;2.13;;
5811;SDS011;2932;52.400;9.558;2024-03-17T19:56:16;10.37;;;2.53;;
5811;SDS011;2932;52.400;9.558;2024-03-17T19:58:42;8.13;;;1.90;;
5811;SDS011;2932;52.400;9.558;2024-03-17T20:01:08;5.93;;;2.47;;
5811;SDS011;2932;52.400;9.558;2024-03-17T20:03:35;7.53;;;2.47;;
5811;SDS011;2932;52.400;9.558;2024-03-17T20:06:02;5.93;;;2.13;;
5811;SDS011;2932;52.400;9.558;2024-03-17T20:08:30;9.77;;;2.50;;
5811;SDS011;2932;52.400;9.558;2024-03-17T20:10:56;5.63;;;2.43;;
5811;SDS011;2932;52.400;9.558;2024-03-17T20:13:25;7.03;;;2.10;;
5811;SDS011;2932;52.400;9.558;2024-03-17T20:15:51;4.63;;;2.70;;
5811;SDS011;2932;52.400;9.558;2024-03-17T20:18:16;8.67;;;2.43;;
5811;SDS011;2932;52.400;9.558;2024-03-17T20:20:42;9.13;;;2.57;;
5811;SDS011;2932;52.400;9.558;2024-03-17T20:23:07;6.53;;;2.30;;
5811;SDS011;2932;52.400;9.558;2024-03-17T20:25:33;4.20;;;2.20;;
5811;SDS011;2932;52.400;9.558;2024-03-17T20:27:59;7.13;;;2.50;;
5811;SDS011;2932;52.400;9.558;2024-03-17T20:30:26;5.23;;;2.20;;
5811;SDS011;2932;52.400;9.558;2024-03-17T20:32:54;5.43;;;2.33;;
5811;SDS011;2932;52.400;9.558;2024-03-17T20:35:20;11.93;;;2.87;;
5811;SDS011;2932;52.400;9.558;2024-03-17T20:37:45;5.37;;;2.20;;
5811;SDS011;2932;52.400;9.558;2024-03-17T20:40:14;6.03;;;2.03;;
5811;SDS011;2932;52.400;9.558;2024-03-17T20:42:43;8.63;;;2.40;;
5811;SDS011;2932;52.400;9.558;2024-03-17T20:45:09;4.90;;;2.30;;
5811;SDS011;2932;52.400;9.558;2024-03-17T20:47:35;6.83;;;2.20;;
5811;SDS011;2932;52.400;9.558;2024-03-17T20:50:01;6.87;;;2.10;;